createdAt,value
2018-04-23T00:00:02.323Z,10.57
2018-04-23T00:02:28.096Z,10.70
2018-04-23T00:04:53.882Z,11.63
2018-04-23T00:07:19.667Z,11.03
2018-04-23T00:09:45.418Z,10.93
2018-04-23T00:12:11.184Z,11.17
2018-04-23T00:14:36.943Z,10.00
2018-04-23T00:17:02.692Z,10.83
2018-04-23T00:19:28.458Z,11.23
2018-04-23T00:21:54.219Z,10.40
2018-04-23T00:24:19.991Z,12.30
2018-04-23T00:26:45.854Z,10.67
2018-04-23T00:29:11.638Z,11.47
2018-04-23T00:31:37.397Z,10.70
2018-04-23T00:34:03.271Z,11.83
2018-04-23T00:36:29.051Z,10.77
2018-04-23T00:38:54.804Z,10.33
2018-04-23T00:41:20.575Z,10.90
2018-04-23T00:43:46.347Z,10.80
2018-04-23T00:46:12.104Z,9.27
2018-04-23T00:48:37.879Z,10.10
2018-04-23T00:51:03.646Z,10.20
2018-04-23T00:53:36.441Z,8.40
2018-04-23T00:56:02.379Z,8.40
2018-04-23T00:58:28.166Z,8.60
2018-04-23T01:00:53.900Z,8.10
2018-04-23T01:03:19.699Z,6.70
2018-04-23T01:05:48.336Z,7.43
2018-04-23T01:08:14.238Z,7.43
2018-04-23T01:10:39.984Z,7.13
2018-04-23T01:13:05.738Z,5.60
2018-04-23T01:15:31.517Z,5.77
2018-04-23T01:17:57.279Z,5.37
2018-04-23T01:20:23.046Z,6.17
2018-04-23T01:22:48.815Z,6.10
2018-04-23T01:25:14.590Z,5.33
2018-04-23T01:27:40.352Z,5.70
2018-04-23T01:30:06.135Z,5.13
2018-04-23T01:32:31.910Z,4.93
2018-04-23T01:34:57.702Z,5.37
2018-04-23T01:37:23.483Z,5.43
2018-04-23T01:39:49.242Z,5.60
2018-04-23T01:42:14.991Z,5.97
2018-04-23T01:44:40.950Z,5.93
2018-04-23T01:47:06.705Z,5.90
2018-04-23T01:49:32.467Z,5.67
2018-04-23T01:51:58.240Z,5.30
2018-04-23T01:54:24.004Z,5.97
2018-04-23T01:56:49.775Z,6.20
2018-04-23T01:59:15.589Z,6.07
2018-04-23T02:01:41.359Z,5.90
2018-04-23T02:04:07.239Z,7.40
2018-04-23T02:06:33.035Z,6.10
2018-04-23T02:08:58.826Z,6.00
2018-04-23T02:11:24.571Z,6.40
2018-04-23T02:13:50.531Z,7.00
2018-04-23T02:16:16.286Z,5.23
2018-04-23T02:18:42.060Z,6.63
2018-04-23T02:21:07.829Z,6.17
2018-04-23T02:23:33.587Z,6.17
2018-04-23T02:25:59.363Z,6.90
2018-04-23T02:28:25.133Z,7.10
2018-04-23T02:30:50.903Z,6.73
2018-04-23T02:33:16.687Z,7.23
2018-04-23T02:35:42.479Z,6.80
2018-04-23T02:38:08.295Z,6.60
2018-04-23T02:40:34.062Z,6.37
2018-04-23T02:42:59.839Z,6.37
2018-04-23T02:45:25.611Z,6.73
2018-04-23T02:47:51.390Z,8.60
2018-04-23T02:50:17.151Z,7.90
2018-04-23T02:52:43.003Z,9.03
2018-04-23T02:55:08.746Z,7.57
2018-04-23T02:57:34.652Z,8.13
2018-04-23T03:00:00.423Z,8.30
2018-04-23T03:02:26.183Z,9.30
2018-04-23T03:04:51.963Z,9.97
2018-04-23T03:07:17.711Z,9.63
2018-04-23T03:09:43.520Z,10.30
2018-04-23T03:12:09.258Z,9.90
2018-04-23T03:14:35.035Z,10.00
2018-04-23T03:17:00.775Z,11.90
2018-04-23T03:19:26.562Z,10.37
2018-04-23T03:21:52.398Z,11.53
2018-04-23T03:24:18.140Z,12.20
2018-04-23T03:26:43.914Z,12.43
2018-04-23T03:29:09.725Z,13.67
2018-04-23T03:31:35.502Z,11.50
2018-04-23T03:34:01.250Z,12.00
2018-04-23T03:36:27.248Z,13.50
2018-04-23T03:38:53.007Z,12.10
2018-04-23T03:41:18.775Z,13.30
2018-04-23T03:43:44.535Z,13.53
2018-04-23T03:46:10.299Z,12.47
2018-04-23T03:48:36.117Z,11.40
2018-04-23T03:51:01.876Z,12.87
2018-04-23T03:53:27.622Z,12.70
2018-04-23T03:55:53.411Z,12.37
2018-04-23T03:58:19.174Z,13.60
2018-04-23T04:00:44.984Z,12.90
2018-04-23T04:03:10.758Z,12.50
2018-04-23T04:05:36.560Z,13.20
2018-04-23T04:08:02.307Z,13.67
2018-04-23T04:10:28.058Z,14.47
2018-04-23T04:13:06.061Z,13.10
2018-04-23T04:18:44.220Z,12.77
2018-04-23T04:21:10.019Z,14.80
2018-04-23T04:23:35.759Z,14.67
2018-04-23T04:26:01.540Z,13.57
2018-04-23T04:28:27.291Z,13.83
2018-04-23T04:30:53.106Z,14.47
2018-04-23T04:33:18.864Z,16.30
2018-04-23T04:35:44.692Z,15.37
2018-04-23T04:38:10.383Z,16.67
2018-04-23T04:40:36.141Z,18.00
2018-04-23T04:43:02.103Z,16.87
2018-04-23T04:45:27.851Z,17.97
2018-04-23T04:47:53.805Z,18.70
2018-04-23T04:50:19.584Z,17.37
2018-04-23T04:52:45.488Z,18.03
2018-04-23T04:55:11.258Z,17.23
2018-04-23T04:57:37.051Z,17.60
2018-04-23T05:00:02.850Z,18.57
2018-04-23T05:02:28.615Z,19.20
2018-04-23T05:04:54.380Z,20.60
2018-04-23T05:07:20.131Z,18.53
2018-04-23T05:09:45.905Z,20.07
2018-04-23T05:12:11.671Z,18.87
2018-04-23T05:14:37.454Z,19.70
2018-04-23T05:17:07.132Z,19.50
2018-04-23T05:19:33.183Z,18.57
2018-04-23T05:21:58.929Z,18.90
2018-04-23T05:24:24.723Z,17.20
2018-04-23T05:26:50.454Z,20.47
2018-04-23T05:29:16.216Z,18.10
2018-04-23T05:31:41.991Z,19.40
2018-04-23T05:34:07.792Z,20.10
2018-04-23T05:36:37.682Z,17.33
2018-04-23T05:39:03.787Z,17.93
2018-04-23T05:41:29.531Z,18.33
2018-04-23T05:43:55.341Z,17.40
2018-04-23T05:46:21.147Z,19.80
2018-04-23T05:48:46.911Z,18.93
2018-04-23T05:51:12.695Z,18.70
2018-04-23T05:53:38.438Z,18.87
2018-04-23T05:56:04.326Z,19.37
2018-04-23T05:58:30.400Z,19.10
2018-04-23T06:00:56.196Z,17.30
2018-04-23T06:03:21.939Z,17.00
2018-04-23T06:05:47.710Z,19.90
2018-04-23T06:08:13.459Z,20.30
2018-04-23T06:10:39.195Z,17.90
2018-04-23T06:13:04.975Z,17.80
2018-04-23T06:15:30.768Z,17.13
2018-04-23T06:17:56.532Z,16.27
2018-04-23T06:20:22.446Z,18.70
2018-04-23T06:22:48.239Z,17.10
2018-04-23T06:25:13.988Z,16.73
2018-04-23T06:27:46.537Z,18.23
2018-04-23T06:30:12.331Z,19.80
2018-04-23T06:32:38.126Z,17.07
2018-04-23T06:35:03.875Z,17.63
2018-04-23T06:37:29.639Z,17.73
2018-04-23T06:39:55.392Z,17.33
2018-04-23T06:42:21.170Z,19.03
2018-04-23T06:44:47.000Z,19.50
2018-04-23T06:47:12.764Z,19.87
2018-04-23T06:49:38.518Z,19.80
2018-04-23T06:52:04.297Z,19.90
2018-04-23T06:54:30.054Z,18.27
2018-04-23T06:56:55.839Z,17.20
2018-04-23T06:59:21.591Z,19.57
2018-04-23T07:01:47.407Z,19.47
2018-04-23T07:04:13.154Z,20.93
2018-04-23T07:06:38.891Z,21.07
2018-04-23T07:09:05.451Z,19.47
2018-04-23T07:11:31.207Z,19.40
2018-04-23T07:13:56.962Z,20.40
2018-04-23T07:16:22.747Z,19.13
2018-04-23T07:18:48.487Z,20.23
2018-04-23T07:21:14.264Z,19.20
2018-04-23T07:23:40.024Z,19.07
2018-04-23T07:26:05.850Z,21.10
2018-04-23T07:28:31.645Z,21.30
2018-04-23T07:30:57.392Z,19.60
2018-04-23T07:33:23.148Z,19.33
2018-04-23T07:35:48.927Z,21.97
2018-04-23T07:38:14.671Z,21.23
2018-04-23T07:40:40.446Z,21.37
2018-04-23T07:43:06.220Z,22.03
2018-04-23T07:45:31.993Z,19.47
2018-04-23T07:47:57.755Z,21.27
2018-04-23T07:50:23.558Z,22.50
2018-04-23T07:52:49.363Z,20.30
2018-04-23T07:55:15.105Z,17.97
2018-04-23T07:57:41.099Z,20.43
2018-04-23T08:00:06.879Z,22.00
2018-04-23T08:02:32.992Z,22.50
2018-04-23T08:04:58.755Z,22.30
2018-04-23T08:07:24.551Z,21.50
2018-04-23T08:09:50.335Z,21.13
2018-04-23T08:12:16.158Z,22.30
2018-04-23T08:14:41.872Z,22.40
2018-04-23T08:17:07.623Z,22.27
2018-04-23T08:19:33.382Z,20.90
2018-04-23T08:21:59.139Z,20.60
2018-04-23T08:24:24.958Z,22.30
2018-04-23T08:26:50.703Z,22.90
2018-04-23T08:29:16.494Z,23.10
2018-04-23T08:31:42.272Z,22.87
2018-04-23T08:34:08.137Z,22.80
2018-04-23T08:36:33.898Z,20.70
2018-04-23T08:38:59.678Z,23.23
2018-04-23T08:41:25.471Z,23.47
2018-04-23T08:43:51.242Z,22.73
2018-04-23T08:46:16.994Z,22.63
2018-04-23T08:48:42.773Z,23.43
2018-04-23T08:51:08.528Z,22.23
2018-04-23T08:53:34.316Z,22.87
2018-04-23T08:56:00.075Z,24.57
2018-04-23T08:58:25.864Z,21.60
2018-04-23T09:00:51.615Z,23.60
2018-04-23T09:03:17.405Z,24.87
2018-04-23T09:05:43.172Z,25.70
2018-04-23T09:08:08.936Z,25.00
2018-04-23T09:10:34.715Z,24.97
2018-04-23T09:13:00.471Z,26.43
2018-04-23T09:15:26.311Z,25.23
2018-04-23T09:17:52.090Z,25.93
2018-04-23T09:20:17.891Z,24.37
2018-04-23T09:22:43.645Z,24.13
2018-04-23T09:25:09.400Z,26.10
2018-04-23T09:27:35.183Z,27.20
2018-04-23T09:30:00.938Z,26.07
2018-04-23T09:32:26.715Z,26.50
2018-04-23T09:34:52.489Z,25.93
2018-04-23T09:37:18.259Z,25.90
2018-04-23T09:39:44.007Z,25.17
2018-04-23T09:42:09.786Z,23.80
2018-04-23T09:44:35.554Z,22.57
2018-04-23T09:47:01.324Z,21.27
2018-04-23T09:49:27.098Z,22.40
2018-04-23T09:51:52.875Z,22.97
2018-04-23T09:54:18.635Z,20.57
2018-04-23T09:56:44.454Z,23.93
2018-04-23T09:59:10.218Z,22.30
2018-04-23T10:01:35.997Z,21.83
2018-04-23T10:04:05.708Z,21.77
2018-04-23T10:06:31.464Z,20.27
2018-04-23T10:08:57.241Z,20.13
2018-04-23T10:11:22.981Z,20.97
2018-04-23T10:13:48.777Z,19.87
2018-04-23T10:16:14.539Z,20.20
2018-04-23T10:18:40.341Z,19.67
2018-04-23T10:21:06.099Z,19.80
2018-04-23T10:23:31.852Z,20.27
2018-04-23T10:25:57.640Z,21.00
2018-04-23T10:28:23.446Z,21.97
2018-04-23T10:30:49.253Z,25.47
2018-04-23T10:33:15.003Z,24.90
2018-04-23T10:35:40.779Z,30.77
2018-04-23T10:38:06.556Z,34.33
2018-04-23T10:40:32.304Z,33.87
2018-04-23T10:42:58.141Z,33.37
2018-04-23T10:45:23.970Z,32.37
2018-04-23T10:47:49.696Z,31.00
2018-04-23T10:50:15.453Z,31.50
2018-04-23T10:52:41.234Z,29.97
2018-04-23T10:55:07.072Z,29.83
2018-04-23T10:57:32.838Z,30.53
2018-04-23T10:59:58.627Z,29.60
2018-04-23T11:02:24.410Z,27.97
2018-04-23T11:04:50.165Z,25.37
2018-04-23T11:07:15.943Z,23.00
2018-04-23T11:09:41.786Z,21.37
2018-04-23T11:12:07.531Z,19.90
2018-04-23T11:14:33.271Z,18.00
2018-04-23T11:16:59.035Z,15.17
2018-04-23T11:19:24.795Z,16.00
2018-04-23T11:21:50.586Z,15.30
2018-04-23T11:24:16.347Z,14.30
2018-04-23T11:26:42.307Z,12.67
2018-04-23T11:29:08.055Z,12.17
2018-04-23T11:31:33.848Z,12.67
2018-04-23T11:33:59.591Z,12.07
2018-04-23T11:36:25.343Z,10.70
2018-04-23T11:38:51.094Z,9.57
2018-04-23T11:41:16.851Z,7.97
2018-04-23T11:43:42.623Z,7.17
2018-04-23T11:46:08.408Z,5.50
2018-04-23T11:48:34.167Z,5.30
2018-04-23T11:50:59.945Z,6.47
2018-04-23T11:53:25.714Z,7.43
2018-04-23T11:55:51.483Z,7.10
2018-04-23T11:58:17.307Z,5.30
2018-04-23T12:00:43.098Z,6.00
2018-04-23T12:03:08.842Z,5.30
2018-04-23T12:05:34.600Z,5.33
2018-04-23T12:08:00.384Z,4.40
2018-04-23T12:10:26.131Z,4.63
2018-04-23T12:12:51.911Z,4.97
2018-04-23T12:15:17.659Z,4.53
2018-04-23T12:17:43.657Z,3.67
2018-04-23T12:20:09.445Z,4.30
2018-04-23T12:22:35.503Z,5.43
2018-04-23T12:25:01.262Z,5.07
2018-04-23T12:27:27.057Z,4.63
2018-04-23T12:29:52.814Z,5.57
2018-04-23T12:32:18.599Z,5.23
2018-04-23T12:34:44.367Z,5.83
2018-04-23T12:37:10.213Z,5.40
2018-04-23T12:39:35.967Z,5.73
2018-04-23T12:42:01.747Z,5.50
2018-04-23T12:44:27.499Z,6.33
2018-04-23T12:46:53.272Z,5.77
2018-04-23T12:49:19.019Z,4.60
2018-04-23T12:51:44.787Z,5.13
2018-04-23T12:54:10.592Z,4.27
2018-04-23T12:56:36.363Z,4.83
2018-04-23T12:59:02.132Z,4.77
2018-04-23T13:01:27.875Z,4.50
2018-04-23T13:03:53.631Z,4.30
2018-04-23T13:06:19.409Z,4.03
2018-04-23T13:08:45.176Z,2.93
2018-04-23T13:11:10.962Z,2.93
2018-04-23T13:13:36.822Z,4.63
2018-04-23T13:16:02.605Z,4.40
2018-04-23T13:18:28.404Z,3.43
2018-04-23T13:20:54.139Z,4.20
2018-04-23T13:23:19.958Z,3.23
2018-04-23T13:25:45.712Z,3.97
2018-04-23T13:28:11.736Z,3.60
2018-04-23T13:30:37.503Z,3.60
2018-04-23T13:33:03.276Z,3.63
2018-04-23T13:35:29.034Z,3.43
2018-04-23T13:37:54.795Z,3.93
2018-04-23T13:40:20.712Z,3.13
2018-04-23T13:42:46.487Z,3.17
2018-04-23T13:45:12.231Z,3.50
2018-04-23T13:47:38.016Z,2.30
2018-04-23T13:50:03.768Z,2.90
2018-04-23T13:52:29.544Z,2.50
2018-04-23T13:54:55.291Z,2.20
2018-04-23T13:57:21.090Z,2.43
2018-04-23T13:59:46.840Z,3.00
2018-04-23T14:02:12.617Z,2.80
2018-04-23T14:04:38.380Z,3.17
2018-04-23T14:07:04.151Z,2.77
2018-04-23T14:09:29.901Z,3.17
2018-04-23T14:11:55.657Z,2.80
2018-04-23T14:14:21.427Z,3.37
2018-04-23T14:16:47.188Z,3.23
2018-04-23T14:19:12.954Z,3.67
2018-04-23T14:21:38.787Z,3.07
2018-04-23T14:24:04.554Z,4.27
2018-04-23T14:26:30.339Z,4.50
2018-04-23T14:28:56.179Z,5.57
2018-04-23T14:31:21.939Z,5.30
2018-04-23T14:33:48.075Z,6.90
2018-04-23T14:36:13.857Z,6.00
2018-04-23T14:38:39.658Z,5.43
2018-04-23T14:41:05.423Z,4.50
2018-04-23T14:43:31.180Z,6.40
2018-04-23T14:45:56.949Z,6.73
2018-04-23T14:48:22.988Z,6.33
2018-04-23T14:50:48.735Z,7.30
2018-04-23T14:53:14.513Z,6.10
2018-04-23T14:55:40.284Z,5.30
2018-04-23T14:58:06.052Z,6.67
2018-04-23T15:00:31.827Z,6.30
2018-04-23T15:02:57.651Z,6.33
2018-04-23T15:05:23.399Z,6.13
2018-04-23T15:07:49.343Z,6.27
2018-04-23T15:10:15.107Z,6.70
2018-04-23T15:12:40.875Z,5.17
2018-04-23T15:15:06.686Z,5.60
2018-04-23T15:17:32.507Z,5.83
2018-04-23T15:19:58.279Z,5.33
2018-04-23T15:22:24.075Z,6.00
2018-04-23T15:24:49.831Z,6.00
2018-04-23T15:27:15.695Z,6.43
2018-04-23T15:29:41.458Z,7.03
2018-04-23T15:32:07.215Z,5.70
2018-04-23T15:34:32.960Z,5.90
2018-04-23T15:36:58.703Z,7.13
2018-04-23T15:39:24.470Z,5.77
2018-04-23T15:41:50.222Z,7.10
2018-04-23T15:44:16.005Z,6.80
2018-04-23T15:46:41.759Z,6.93
2018-04-23T15:49:07.541Z,6.60
2018-04-23T15:51:33.275Z,6.80
2018-04-23T15:53:59.278Z,6.93
2018-04-23T15:56:25.035Z,5.67
2018-04-23T15:58:51.023Z,7.23
2018-04-23T16:01:16.783Z,5.80
2018-04-23T16:03:42.623Z,5.90
2018-04-23T16:06:08.393Z,5.07
2018-04-23T16:08:34.292Z,5.50
2018-04-23T16:11:00.056Z,5.20
2018-04-23T16:13:25.817Z,4.63
2018-04-23T16:15:51.611Z,4.70
2018-04-23T16:18:17.459Z,4.97
2018-04-23T16:20:43.182Z,6.20
2018-04-23T16:23:08.942Z,6.40
2018-04-23T16:25:34.927Z,5.53
2018-04-23T16:28:00.723Z,6.27
2018-04-23T16:30:26.475Z,5.70
2018-04-23T16:32:52.271Z,6.17
2018-04-23T16:35:18.063Z,5.97
2018-04-23T16:37:43.826Z,6.20
2018-04-23T16:40:09.575Z,5.83
2018-04-23T16:42:35.331Z,6.13
2018-04-23T16:45:01.105Z,5.00
2018-04-23T16:47:26.886Z,5.33
2018-04-23T16:49:52.648Z,6.33
2018-04-23T16:52:18.675Z,5.40
2018-04-23T16:54:44.672Z,5.93
2018-04-23T16:57:10.399Z,4.97
2018-04-23T16:59:36.167Z,4.70
2018-04-23T17:02:01.920Z,4.90
2018-04-23T17:04:27.687Z,5.27
2018-04-23T17:06:53.445Z,4.30
2018-04-23T17:09:19.222Z,4.93
2018-04-23T17:11:44.982Z,5.00
2018-04-23T17:14:10.806Z,4.70
2018-04-23T17:16:36.583Z,5.27
2018-04-23T17:19:02.392Z,3.83
2018-04-23T17:21:28.163Z,3.93
2018-04-23T17:23:53.951Z,3.80
2018-04-23T17:26:19.731Z,4.20
2018-04-23T17:28:45.559Z,4.20
2018-04-23T17:31:11.340Z,3.57
2018-04-23T17:33:37.129Z,3.47
2018-04-23T17:36:02.924Z,4.13
2018-04-23T17:38:28.663Z,4.17
2018-04-23T17:40:54.519Z,3.50
2018-04-23T17:43:20.262Z,4.20
2018-04-23T17:45:46.042Z,4.30
2018-04-23T17:48:11.784Z,4.80
2018-04-23T17:50:37.554Z,4.00
2018-04-23T17:53:03.303Z,3.70
2018-04-23T17:55:29.417Z,3.80
2018-04-23T17:57:55.175Z,3.83
2018-04-23T18:00:20.958Z,3.57
2018-04-23T18:02:46.733Z,4.10
2018-04-23T18:05:12.504Z,3.43
2018-04-23T18:07:38.255Z,3.50
2018-04-23T18:10:04.046Z,3.13
2018-04-23T18:12:29.796Z,3.63
2018-04-23T18:14:55.583Z,3.87
2018-04-23T18:17:21.333Z,3.97
2018-04-23T18:19:47.119Z,3.40
2018-04-23T18:22:12.867Z,3.50
2018-04-23T18:24:38.656Z,3.40
2018-04-23T18:27:04.487Z,3.43
2018-04-23T18:29:30.239Z,3.37
2018-04-23T18:31:56.030Z,3.67
2018-04-23T18:34:21.809Z,3.10
2018-04-23T18:36:47.563Z,3.57
2018-04-23T18:39:13.338Z,3.10
2018-04-23T18:41:39.127Z,3.10
2018-04-23T18:44:04.896Z,3.37
2018-04-23T18:46:30.672Z,3.80
2018-04-23T18:48:56.407Z,3.53
2018-04-23T18:51:22.327Z,3.90
2018-04-23T18:53:48.057Z,3.03
2018-04-23T18:56:13.920Z,3.50
2018-04-23T18:58:39.758Z,3.70
2018-04-23T19:01:05.791Z,3.63
2018-04-23T19:03:31.714Z,2.90
2018-04-23T19:05:57.504Z,2.47
2018-04-23T19:08:23.250Z,2.83
2018-04-23T19:10:49.020Z,2.93
2018-04-23T19:13:14.780Z,2.53
2018-04-23T19:15:40.600Z,3.50
2018-04-23T19:18:06.367Z,3.63
2018-04-23T19:20:32.183Z,2.87
2018-04-23T19:22:58.023Z,3.43
2018-04-23T19:25:23.799Z,2.90
2018-04-23T19:27:49.551Z,3.23
2018-04-23T19:30:15.371Z,2.83
2018-04-23T19:32:41.143Z,3.30
2018-04-23T19:35:06.887Z,4.13
2018-04-23T19:37:32.683Z,3.63
2018-04-23T19:39:58.454Z,3.00
2018-04-23T19:42:24.207Z,3.53
2018-04-23T19:44:49.975Z,3.20
2018-04-23T19:47:15.717Z,3.20
2018-04-23T19:49:41.507Z,3.80
2018-04-23T19:52:07.291Z,3.30
2018-04-23T19:54:33.051Z,4.00
2018-04-23T19:56:58.904Z,3.20
2018-04-23T19:59:24.699Z,3.47
2018-04-23T20:01:50.447Z,3.30
2018-04-23T20:04:16.248Z,3.63
2018-04-23T20:06:42.008Z,3.80
2018-04-23T20:09:07.767Z,3.17
2018-04-23T20:11:33.535Z,3.83
2018-04-23T20:13:59.308Z,3.80
2018-04-23T20:16:25.089Z,4.20
2018-04-23T20:18:50.843Z,4.00
2018-04-23T20:21:16.651Z,4.33
2018-04-23T20:23:42.414Z,4.10
2018-04-23T20:26:08.195Z,4.10
2018-04-23T20:28:33.943Z,4.50
2018-04-23T20:30:59.702Z,3.20
2018-04-23T20:33:25.487Z,4.23
2018-04-23T20:35:51.250Z,3.80
2018-04-23T20:38:17.020Z,4.20
2018-04-23T20:40:42.803Z,4.20
2018-04-23T20:43:08.572Z,4.93
2018-04-23T20:45:34.330Z,5.60
2018-04-23T20:48:00.070Z,4.93
2018-04-23T20:50:25.843Z,5.00
2018-04-23T20:52:51.612Z,5.07
2018-04-23T20:55:17.684Z,5.80
2018-04-23T20:57:43.447Z,5.28
2018-04-23T21:00:09.227Z,6.00
2018-04-23T21:02:34.962Z,5.17
2018-04-23T21:05:00.783Z,7.10
2018-04-23T21:07:26.535Z,6.47
2018-04-23T21:09:52.308Z,6.10
2018-04-23T21:12:18.122Z,5.87
2018-04-23T21:14:43.933Z,5.83
2018-04-23T21:17:09.690Z,5.77
2018-04-23T21:19:35.482Z,4.90
2018-04-23T21:22:01.235Z,6.93
2018-04-23T21:24:27.178Z,5.30
2018-04-23T21:26:52.947Z,5.57
2018-04-23T21:29:18.720Z,5.20
2018-04-23T21:31:44.463Z,5.87
2018-04-23T21:34:10.324Z,5.30
2018-04-23T21:36:36.019Z,5.30
2018-04-23T21:39:01.847Z,5.60
2018-04-23T21:41:27.631Z,4.70
2018-04-23T21:43:53.378Z,6.07
2018-04-23T21:46:19.159Z,5.90
2018-04-23T21:48:45.015Z,6.03
2018-04-23T21:51:10.814Z,5.43
2018-04-23T21:53:36.574Z,6.00
2018-04-23T21:56:02.383Z,6.07
2018-04-23T21:58:28.135Z,5.70
2018-04-23T22:00:53.919Z,5.87
2018-04-23T22:03:19.671Z,6.10
2018-04-23T22:05:45.452Z,6.10
2018-04-23T22:08:11.202Z,6.37
2018-04-23T22:10:36.981Z,6.63
2018-04-23T22:13:02.759Z,6.30
2018-04-23T22:15:28.538Z,6.27
2018-04-23T22:17:54.335Z,6.03
2018-04-23T22:20:20.075Z,6.90
2018-04-23T22:22:45.839Z,6.33
2018-04-23T22:25:11.606Z,6.70
2018-04-23T22:27:37.357Z,5.90
2018-04-23T22:30:03.203Z,5.97
2018-04-23T22:32:28.986Z,6.70
2018-04-23T22:34:54.785Z,6.00
2018-04-23T22:37:20.538Z,7.00
2018-04-23T22:39:46.298Z,7.10
2018-04-23T22:42:12.063Z,6.93
2018-04-23T22:44:37.823Z,7.53
2018-04-23T22:47:03.755Z,6.33
2018-04-23T22:49:29.511Z,6.27
2018-04-23T22:51:55.270Z,6.27
2018-04-23T22:54:21.011Z,7.40
2018-04-23T22:56:46.787Z,7.43
2018-04-23T22:59:12.544Z,7.50
2018-04-23T23:01:38.340Z,6.87
2018-04-23T23:04:04.117Z,7.40
2018-04-23T23:06:29.915Z,6.90
2018-04-23T23:08:55.637Z,7.10
2018-04-23T23:11:21.554Z,6.80
2018-04-23T23:13:47.324Z,7.20
2018-04-23T23:16:13.301Z,6.80
2018-04-23T23:18:39.066Z,6.97
2018-04-23T23:21:05.134Z,7.30
2018-04-23T23:23:30.900Z,7.50
2018-04-23T23:25:56.675Z,8.10
2018-04-23T23:28:22.424Z,8.03
2018-04-23T23:30:48.183Z,7.90
2018-04-23T23:33:13.971Z,7.03
2018-04-23T23:35:39.740Z,7.50
2018-04-23T23:38:05.498Z,7.03
2018-04-23T23:40:31.267Z,8.17
2018-04-23T23:42:57.068Z,9.33
2018-04-23T23:45:22.825Z,8.10
2018-04-23T23:47:48.597Z,8.20
2018-04-23T23:50:14.351Z,8.07
2018-04-23T23:52:40.200Z,8.10
2018-04-23T23:55:05.959Z,8.40
2018-04-23T23:57:38.807Z,9.10
